createdAt,value
2023-03-15T00:02:17.062Z,86.71
2023-03-15T00:07:41.885Z,86.73
2023-03-15T00:13:06.934Z,86.87
2023-03-15T00:18:31.961Z,86.83
2023-03-15T00:23:56.995Z,87.05
2023-03-15T00:29:20.939Z,87.15
2023-03-15T00:34:49.317Z,87.37
2023-03-15T00:40:14.404Z,87.27
2023-03-15T00:45:40.236Z,87.12
2023-03-15T00:51:09.253Z,87.00
2023-03-15T00:56:33.423Z,86.61
2023-03-15T01:01:58.282Z,86.42
2023-03-15T01:07:22.193Z,86.22
2023-03-15T01:12:46.739Z,85.84
2023-03-15T01:18:11.787Z,85.61
2023-03-15T01:23:35.690Z,85.38
2023-03-15T01:29:00.108Z,85.09
2023-03-15T01:34:24.433Z,85.19
2023-03-15T01:39:49.973Z,85.10
2023-03-15T01:45:51.766Z,84.94
2023-03-15T01:51:23.831Z,84.71
2023-03-15T01:56:55.174Z,84.84
2023-03-15T02:02:23.045Z,84.55
2023-03-15T02:07:50.790Z,84.46
2023-03-15T02:13:19.823Z,84.54
2023-03-15T02:18:44.181Z,84.24
2023-03-15T02:24:34.542Z,84.24
2023-03-15T02:29:59.658Z,84.36
2023-03-15T02:35:29.414Z,83.91
2023-03-15T02:40:54.198Z,84.03
2023-03-15T02:46:19.229Z,83.62
2023-03-15T02:51:44.074Z,83.21
2023-03-15T02:57:11.578Z,83.26
2023-03-15T03:02:35.659Z,83.08
2023-03-15T03:07:59.812Z,83.13
2023-03-15T03:13:24.013Z,83.29
2023-03-15T03:18:48.336Z,83.19
2023-03-15T03:24:16.635Z,83.16
2023-03-15T03:29:42.512Z,83.21
2023-03-15T03:35:08.847Z,83.32
2023-03-15T03:40:32.987Z,83.09
2023-03-15T03:45:57.645Z,83.26
2023-03-15T03:51:22.047Z,82.98
2023-03-15T03:56:47.145Z,82.99
2023-03-15T04:02:12.936Z,82.78
2023-03-15T04:07:41.998Z,83.01
2023-03-15T04:13:07.408Z,82.93
2023-03-15T04:18:31.530Z,82.97
2023-03-15T04:23:56.519Z,82.86
2023-03-15T04:29:39.821Z,82.94
2023-03-15T04:35:22.965Z,82.87
2023-03-15T04:40:59.915Z,83.18
2023-03-15T04:46:47.786Z,83.30
2023-03-15T04:52:21.808Z,83.51
2023-03-15T04:58:02.408Z,83.44
2023-03-15T05:03:36.548Z,83.41
2023-03-15T05:09:26.408Z,83.62
2023-03-15T05:15:14.377Z,83.57
2023-03-15T05:20:57.151Z,83.37
2023-03-15T05:26:35.646Z,83.26
2023-03-15T05:32:27.181Z,83.11
2023-03-15T05:38:27.092Z,82.89
2023-03-15T05:44:12.061Z,82.68
2023-03-15T05:49:56.117Z,82.62
2023-03-15T05:55:39.144Z,82.52
2023-03-15T06:01:06.323Z,82.13
2023-03-15T06:06:44.313Z,81.77
2023-03-15T06:12:10.483Z,81.48
2023-03-15T06:17:36.634Z,81.01
2023-03-15T06:23:01.067Z,80.83
2023-03-15T06:28:35.122Z,80.52
2023-03-15T06:33:59.676Z,80.04
2023-03-15T06:39:24.220Z,79.24
2023-03-15T06:44:51.124Z,79.00
2023-03-15T06:50:18.158Z,78.74
2023-03-15T06:55:42.307Z,78.30
2023-03-15T07:01:06.712Z,76.99
2023-03-15T07:06:31.382Z,76.25
2023-03-15T07:11:55.565Z,75.88
2023-03-15T07:17:20.374Z,76.41
2023-03-15T07:22:46.692Z,75.74
2023-03-15T07:28:11.122Z,75.45
2023-03-15T07:33:36.964Z,75.45
2023-03-15T07:39:02.038Z,74.60
2023-03-15T07:44:26.863Z,73.91
2023-03-15T07:49:52.398Z,73.35
2023-03-15T07:55:18.386Z,73.19
2023-03-15T08:00:42.719Z,73.10
2023-03-15T08:06:07.159Z,73.16
2023-03-15T08:11:31.832Z,72.63
2023-03-15T08:17:52.269Z,71.81
2023-03-15T08:23:23.635Z,71.77
2023-03-15T08:28:48.808Z,70.58
2023-03-15T08:34:13.448Z,69.15
2023-03-15T08:39:38.224Z,67.52
2023-03-15T08:45:03.523Z,65.90
2023-03-15T08:50:28.938Z,65.50
2023-03-15T08:55:54.079Z,63.52
2023-03-15T09:01:19.952Z,63.05
2023-03-15T09:06:44.815Z,62.27
2023-03-15T09:12:09.185Z,61.13
2023-03-15T09:17:33.566Z,59.64
2023-03-15T09:22:59.412Z,59.48
2023-03-15T09:28:26.084Z,59.70
2023-03-15T09:33:51.906Z,59.31
2023-03-15T09:39:16.410Z,59.82
2023-03-15T09:44:58.533Z,60.65
2023-03-15T09:50:29.806Z,59.03
2023-03-15T09:55:54.876Z,59.71
2023-03-15T10:01:30.419Z,60.06
2023-03-15T10:07:01.319Z,60.59
2023-03-15T10:12:43.092Z,59.05
2023-03-15T10:18:27.186Z,59.46
2023-03-15T10:23:54.484Z,59.62
2023-03-15T10:29:25.228Z,59.43
2023-03-15T10:34:52.593Z,59.46
2023-03-15T10:40:40.300Z,59.78
2023-03-15T10:46:23.717Z,59.68
2023-03-15T10:51:49.117Z,60.25
2023-03-15T10:57:19.691Z,59.83
2023-03-15T11:03:06.296Z,59.10
2023-03-15T11:08:40.330Z,59.50
2023-03-15T11:14:07.586Z,60.05
2023-03-15T11:19:38.282Z,59.81
2023-03-15T11:25:02.443Z,60.48
2023-03-15T11:30:31.732Z,60.50
2023-03-15T11:35:59.002Z,61.61
2023-03-15T11:41:41.571Z,62.34
2023-03-15T11:47:26.554Z,62.05
2023-03-15T11:52:52.172Z,62.47
2023-03-15T11:58:35.814Z,63.32
2023-03-15T12:04:24.882Z,64.18
2023-03-15T12:09:52.707Z,64.75
2023-03-15T12:15:20.566Z,65.08
2023-03-15T12:21:15.250Z,65.31
2023-03-15T12:26:48.121Z,65.81
2023-03-15T12:32:16.270Z,65.94
2023-03-15T12:37:46.491Z,65.63
2023-03-15T12:43:12.951Z,65.10
2023-03-15T12:49:27.026Z,65.48
2023-03-15T12:55:18.610Z,66.02
2023-03-15T13:00:44.035Z,66.17
2023-03-15T13:06:27.323Z,65.77
2023-03-15T13:11:57.541Z,66.46
2023-03-15T13:17:32.058Z,66.70
2023-03-15T13:23:05.334Z,66.91
2023-03-15T13:28:38.518Z,65.66
2023-03-15T13:34:26.547Z,65.80
2023-03-15T13:40:08.844Z,65.83
2023-03-15T13:45:37.649Z,67.19
2023-03-15T13:51:23.753Z,72.86
2023-03-15T13:56:56.808Z,75.23
2023-03-15T14:02:35.651Z,76.07
2023-03-15T14:08:04.513Z,76.48
2023-03-15T14:13:47.216Z,75.91
2023-03-15T14:19:21.740Z,75.51
2023-03-15T14:24:49.405Z,72.68
2023-03-15T14:30:27.114Z,71.14
2023-03-15T14:35:58.731Z,69.18
2023-03-15T14:41:31.980Z,66.65
2023-03-15T14:46:56.385Z,65.98
2023-03-15T14:52:24.517Z,64.51
2023-03-15T14:57:48.896Z,63.63
2023-03-15T15:03:38.912Z,63.58
2023-03-15T15:09:06.291Z,64.78
2023-03-15T15:14:30.788Z,64.27
2023-03-15T15:19:55.068Z,64.63
2023-03-15T15:25:30.475Z,65.18
2023-03-15T15:30:54.622Z,65.08
2023-03-15T15:36:32.624Z,64.46
2023-03-15T15:41:58.393Z,64.41
2023-03-15T15:47:23.179Z,65.13
2023-03-15T15:52:50.382Z,65.69
2023-03-15T15:58:15.773Z,64.88
2023-03-15T16:03:40.172Z,63.89
2023-03-15T16:09:08.762Z,63.20
2023-03-15T16:14:33.866Z,63.32
2023-03-15T16:19:58.155Z,63.27
2023-03-15T16:25:28.234Z,63.12
2023-03-15T16:30:53.030Z,63.07
2023-03-15T16:36:22.580Z,63.88
2023-03-15T16:41:48.257Z,64.61
2023-03-15T16:47:14.021Z,65.17
2023-03-15T16:52:39.561Z,65.90
2023-03-15T16:58:13.595Z,66.26
2023-03-15T17:03:37.896Z,66.99
2023-03-15T17:09:05.278Z,67.29
2023-03-15T17:14:35.920Z,67.67
2023-03-15T17:20:00.955Z,67.92
2023-03-15T17:25:26.047Z,68.36
2023-03-15T17:30:55.212Z,68.98
2023-03-15T17:36:26.578Z,69.73
2023-03-15T17:41:51.094Z,69.91
2023-03-15T17:47:16.012Z,69.95
2023-03-15T17:52:43.497Z,70.68
2023-03-15T17:58:12.797Z,70.95
2023-03-15T18:03:37.208Z,71.03
2023-03-15T18:09:01.672Z,71.49
2023-03-15T18:14:26.398Z,72.28
2023-03-15T18:19:50.748Z,72.27
2023-03-15T18:25:28.298Z,72.62
2023-03-15T18:30:52.363Z,71.95
2023-03-15T18:36:16.883Z,72.37
2023-03-15T18:41:42.042Z,72.87
2023-03-15T18:47:08.614Z,73.18
2023-03-15T18:52:33.624Z,73.56
2023-03-15T18:57:59.329Z,73.86
2023-03-15T19:03:24.321Z,74.30
2023-03-15T19:08:53.637Z,74.52
2023-03-15T19:14:18.502Z,74.38
2023-03-15T19:19:42.859Z,74.52
2023-03-15T19:25:09.356Z,74.94
2023-03-15T19:30:35.344Z,75.19
2023-03-15T19:36:00.508Z,75.62
2023-03-15T19:41:25.244Z,75.82
2023-03-15T19:46:51.281Z,75.89
2023-03-15T19:52:16.491Z,76.62
2023-03-15T19:57:41.690Z,76.41
2023-03-15T20:03:06.677Z,76.60
2023-03-15T20:08:30.923Z,77.06
2023-03-15T20:13:55.424Z,77.05
2023-03-15T20:19:20.526Z,77.28
2023-03-15T20:24:45.186Z,77.68
2023-03-15T20:30:11.841Z,77.70
2023-03-15T20:35:37.736Z,77.75
2023-03-15T20:41:02.125Z,77.79
2023-03-15T20:46:30.111Z,78.23
2023-03-15T20:51:54.133Z,78.46
2023-03-15T20:57:18.500Z,78.63
2023-03-15T21:02:43.590Z,78.77
2023-03-15T21:08:08.837Z,79.00
2023-03-15T21:13:34.141Z,79.37
2023-03-15T21:18:58.182Z,79.94
2023-03-15T21:24:22.603Z,80.20
2023-03-15T21:29:46.773Z,80.05
2023-03-15T21:35:12.023Z,80.36
2023-03-15T21:40:37.601Z,80.30
2023-03-15T21:46:04.579Z,80.36
2023-03-15T21:51:29.856Z,80.30
2023-03-15T21:56:53.833Z,80.63
2023-03-15T22:02:18.076Z,80.69
2023-03-15T22:07:43.316Z,80.73
2023-03-15T22:13:08.655Z,80.59
2023-03-15T22:18:33.128Z,80.68
2023-03-15T22:23:57.894Z,80.45
2023-03-15T22:29:21.995Z,80.61
2023-03-15T22:34:47.202Z,80.68
2023-03-15T22:40:14.670Z,80.69
2023-03-15T22:45:40.491Z,80.99
2023-03-15T22:51:08.103Z,81.48
2023-03-15T22:56:32.285Z,81.23
2023-03-15T23:01:57.503Z,81.73
2023-03-15T23:07:21.734Z,81.80
2023-03-15T23:12:47.094Z,82.11
2023-03-15T23:18:14.093Z,82.18
2023-03-15T23:23:43.035Z,82.18
2023-03-15T23:29:13.983Z,82.26
2023-03-15T23:34:42.902Z,82.70
2023-03-15T23:40:15.799Z,82.90
2023-03-15T23:45:40.594Z,82.71
2023-03-15T23:51:05.644Z,82.91
2023-03-15T23:56:30.772Z,82.79
